sensor_id;sensor_type;location;lat;lon;timestamp;pressure;altitude;pressure_sealevel;temperature;humidity
9717;BME280;4897;43.570;27.832;2022-10-22T00:01:03;99980.78;;;8.35;100.00
9717;BME280;4897;43.570;27.832;2022-10-22T00:03:30;99964.41;;;8.27;100.00
9717;BME280;4897;43.570;27.832;2022-10-22T00:05:57;99967.06;;;8.27;100.00
9717;BME280;4897;43.570;27.832;2022-10-22T00:08:24;99965.81;;;8.19;100.00
9717;BME280;4897;43.570;27.832;2022-10-22T00:10:51;99955.25;;;8.03;100.00
9717;BME280;4897;43.570;27.832;2022-10-22T00:13:18;99952.00;;;7.84;100.00
9717;BME280;4897;43.570;27.832;2022-10-22T00:15:45;99858.78;;;7.28;100.00
9717;BME280;4897;43.570;27.832;2022-10-22T00:18:13;99927.94;;;7.71;100.00
9717;BME280;4897;43.570;27.832;2022-10-22T00:20:41;99938.09;;;7.51;100.00
9717;BME280;4897;43.570;27.832;2022-10-22T00:23:08;99947.94;;;7.92;100.00
9717;BME280;4897;43.570;27.832;2022-10-22T00:25:35;99935.81;;;7.87;100.00
9717;BME280;4897;43.570;27.832;2022-10-22T00:28:02;99940.69;;;7.94;100.00
9717;BME280;4897;43.570;27.832;2022-10-22T00:30:29;99932.50;;;7.83;100.00
9717;BME280;4897;43.570;27.832;2022-10-22T00:32:56;99939.91;;;7.78;100.00
9717;BME280;4897;43.570;27.832;2022-10-22T00:35:24;99906.25;;;7.77;100.00
9717;BME280;4897;43.570;27.832;2022-10-22T00:37:51;99934.69;;;7.91;100.00
9717;BME280;4897;43.570;27.832;2022-10-22T00:40:18;99928.53;;;7.90;100.00
9717;BME280;4897;43.570;27.832;2022-10-22T00:42:45;99928.16;;;7.96;100.00
9717;BME280;4897;43.570;27.832;2022-10-22T00:45:18;99920.06;;;7.98;100.00
9717;BME280;4897;43.570;27.832;2022-10-22T00:47:50;99914.16;;;8.07;100.00
9717;BME280;4897;43.570;27.832;2022-10-22T00:50:21;99907.69;;;8.25;100.00
9717;BME280;4897;43.570;27.832;2022-10-22T00:52:50;99901.78;;;8.34;100.00
9717;BME280;4897;43.570;27.832;2022-10-22T00:55:18;99900.72;;;8.51;100.00
9717;BME280;4897;43.570;27.832;2022-10-22T00:57:46;99878.56;;;8.36;100.00
9717;BME280;4897;43.570;27.832;2022-10-22T01:00:14;99877.38;;;8.54;100.00
9717;BME280;4897;43.570;27.832;2022-10-22T01:02:41;99898.00;;;8.65;100.00
9717;BME280;4897;43.570;27.832;2022-10-22T01:05:09;99893.41;;;8.67;100.00
9717;BME280;4897;43.570;27.832;2022-10-22T01:07:41;99895.97;;;8.68;100.00
9717;BME280;4897;43.570;27.832;2022-10-22T01:10:19;99830.16;;;8.30;100.00
9717;BME280;4897;43.570;27.832;2022-10-22T01:12:56;99887.88;;;8.70;100.00
9717;BME280;4897;43.570;27.832;2022-10-22T01:15:33;99889.59;;;8.71;100.00
9717;BME280;4897;43.570;27.832;2022-10-22T01:18:06;99890.28;;;8.60;100.00
9717;BME280;4897;43.570;27.832;2022-10-22T01:20:54;99882.13;;;8.63;100.00
9717;BME280;4897;43.570;27.832;2022-10-22T01:23:35;99864.84;;;8.42;100.00
9717;BME280;4897;43.570;27.832;2022-10-22T01:26:18;99857.09;;;8.52;100.00
9717;BME280;4897;43.570;27.832;2022-10-22T01:28:56;99868.44;;;8.68;100.00
9717;BME280;4897;43.570;27.832;2022-10-22T01:31:27;99807.03;;;8.30;100.00
9717;BME280;4897;43.570;27.832;2022-10-22T01:33:57;99866.75;;;8.67;100.00
9717;BME280;4897;43.570;27.832;2022-10-22T01:36:27;99866.13;;;8.63;100.00
9717;BME280;4897;43.570;27.832;2022-10-22T01:38:55;99863.63;;;8.60;100.00
9717;BME280;4897;43.570;27.832;2022-10-22T01:41:23;99841.00;;;8.53;100.00
9717;BME280;4897;43.570;27.832;2022-10-22T01:43:52;99863.97;;;8.68;100.00
9717;BME280;4897;43.570;27.832;2022-10-22T01:46:20;99865.25;;;8.63;100.00
9717;BME280;4897;43.570;27.832;2022-10-22T01:48:58;99878.31;;;8.53;100.00
9717;BME280;4897;43.570;27.832;2022-10-22T01:51:41;99862.19;;;8.42;100.00
9717;BME280;4897;43.570;27.832;2022-10-22T01:54:24;99878.84;;;8.32;100.00
9717;BME280;4897;43.570;27.832;2022-10-22T01:56:57;99878.47;;;8.24;100.00
9717;BME280;4897;43.570;27.832;2022-10-22T01:59:40;99838.47;;;7.83;100.00
9717;BME280;4897;43.570;27.832;2022-10-22T02:02:12;99866.94;;;8.23;100.00
9717;BME280;4897;43.570;27.832;2022-10-22T02:04:48;99858.59;;;8.15;100.00
9717;BME280;4897;43.570;27.832;2022-10-22T02:07:18;99868.84;;;8.21;100.00
9717;BME280;4897;43.570;27.832;2022-10-22T02:09:48;99870.00;;;8.31;100.00
9717;BME280;4897;43.570;27.832;2022-10-22T02:12:18;99863.72;;;8.32;100.00
9717;BME280;4897;43.570;27.832;2022-10-22T02:14:49;99864.84;;;8.28;100.00
9717;BME280;4897;43.570;27.832;2022-10-22T02:17:19;99804.31;;;7.89;100.00
9717;BME280;4897;43.570;27.832;2022-10-22T02:19:51;99858.66;;;8.14;100.00
9717;BME280;4897;43.570;27.832;2022-10-22T02:22:19;99768.78;;;7.62;100.00
9717;BME280;4897;43.570;27.832;2022-10-22T02:24:48;99865.53;;;8.03;100.00
9717;BME280;4897;43.570;27.832;2022-10-22T02:27:20;99849.28;;;7.94;100.00
9717;BME280;4897;43.570;27.832;2022-10-22T02:29:55;99862.97;;;8.02;100.00
9717;BME280;4897;43.570;27.832;2022-10-22T02:32:29;99849.59;;;7.89;100.00
9717;BME280;4897;43.570;27.832;2022-10-22T02:34:59;99839.22;;;7.71;100.00
9717;BME280;4897;43.570;27.832;2022-10-22T02:37:27;99855.19;;;7.85;100.00
9717;BME280;4897;43.570;27.832;2022-10-22T02:39:54;99847.97;;;7.87;100.00
9717;BME280;4897;43.570;27.832;2022-10-22T02:42:22;99851.50;;;7.87;100.00
9717;BME280;4897;43.570;27.832;2022-10-22T02:44:51;99843.03;;;7.81;100.00
9717;BME280;4897;43.570;27.832;2022-10-22T02:47:18;99843.22;;;7.78;100.00
9717;BME280;4897;43.570;27.832;2022-10-22T02:49:45;99851.56;;;7.72;100.00
9717;BME280;4897;43.570;27.832;2022-10-22T02:52:12;99849.00;;;7.70;100.00
9717;BME280;4897;43.570;27.832;2022-10-22T02:54:39;99847.59;;;7.65;100.00
9717;BME280;4897;43.570;27.832;2022-10-22T02:57:06;99852.94;;;7.65;100.00
9717;BME280;4897;43.570;27.832;2022-10-22T02:59:33;99852.72;;;7.68;100.00
9717;BME280;4897;43.570;27.832;2022-10-22T03:02:01;99767.38;;;7.14;100.00
9717;BME280;4897;43.570;27.832;2022-10-22T03:04:28;99846.47;;;7.55;100.00
9717;BME280;4897;43.570;27.832;2022-10-22T03:06:55;99840.19;;;7.42;100.00
9717;BME280;4897;43.570;27.832;2022-10-22T03:09:22;99840.66;;;7.48;100.00
9717;BME280;4897;43.570;27.832;2022-10-22T03:11:49;99839.03;;;7.46;100.00
9717;BME280;4897;43.570;27.832;2022-10-22T03:14:16;99833.22;;;7.53;100.00
9717;BME280;4897;43.570;27.832;2022-10-22T03:16:43;99834.84;;;7.42;100.00
9717;BME280;4897;43.570;27.832;2022-10-22T03:19:11;99834.84;;;7.42;100.00
9717;BME280;4897;43.570;27.832;2022-10-22T03:21:41;99847.19;;;7.43;100.00
9717;BME280;4897;43.570;27.832;2022-10-22T03:24:13;99849.41;;;7.36;100.00
9717;BME280;4897;43.570;27.832;2022-10-22T03:26:42;99843.38;;;7.33;100.00
9717;BME280;4897;43.570;27.832;2022-10-22T03:29:12;99841.22;;;7.39;100.00
9717;BME280;4897;43.570;27.832;2022-10-22T03:31:40;99839.13;;;7.44;100.00
9717;BME280;4897;43.570;27.832;2022-10-22T03:34:07;99841.53;;;7.49;100.00
9717;BME280;4897;43.570;27.832;2022-10-22T03:36:35;99851.78;;;7.55;100.00
9717;BME280;4897;43.570;27.832;2022-10-22T03:39:03;99847.22;;;7.71;100.00
9717;BME280;4897;43.570;27.832;2022-10-22T03:41:32;99833.53;;;7.77;100.00
9717;BME280;4897;43.570;27.832;2022-10-22T03:44:01;99833.22;;;7.95;100.00
9717;BME280;4897;43.570;27.832;2022-10-22T03:46:28;99827.59;;;8.00;100.00
9717;BME280;4897;43.570;27.832;2022-10-22T03:48:55;99833.88;;;8.13;100.00
9717;BME280;4897;43.570;27.832;2022-10-22T03:51:23;99837.63;;;8.23;100.00
9717;BME280;4897;43.570;27.832;2022-10-22T03:53:53;99809.31;;;8.08;100.00
9717;BME280;4897;43.570;27.832;2022-10-22T03:56:20;99791.81;;;8.04;100.00
9717;BME280;4897;43.570;27.832;2022-10-22T03:58:47;99797.97;;;8.19;100.00
9717;BME280;4897;43.570;27.832;2022-10-22T04:01:14;99803.19;;;8.20;100.00
9717;BME280;4897;43.570;27.832;2022-10-22T04:03:41;99802.81;;;8.26;100.00
9717;BME280;4897;43.570;27.832;2022-10-22T04:06:09;99807.09;;;8.29;100.00
9717;BME280;4897;43.570;27.832;2022-10-22T04:08:38;99797.94;;;8.33;100.00
9717;BME280;4897;43.570;27.832;2022-10-22T04:11:07;99809.88;;;8.27;100.00
9717;BME280;4897;43.570;27.832;2022-10-22T04:13:34;99811.09;;;8.36;100.00
9717;BME280;4897;43.570;27.832;2022-10-22T04:16:08;99800.34;;;8.23;100.00
9717;BME280;4897;43.570;27.832;2022-10-22T04:18:35;99800.78;;;8.44;100.00
9717;BME280;4897;43.570;27.832;2022-10-22T04:21:03;99810.28;;;8.48;100.00
9717;BME280;4897;43.570;27.832;2022-10-22T04:23:30;99809.06;;;8.39;100.00
9717;BME280;4897;43.570;27.832;2022-10-22T04:25:57;99792.53;;;8.34;100.00
9717;BME280;4897;43.570;27.832;2022-10-22T04:28:26;99780.69;;;8.26;100.00
9717;BME280;4897;43.570;27.832;2022-10-22T04:30:53;99733.06;;;8.07;100.00
9717;BME280;4897;43.570;27.832;2022-10-22T04:33:20;99799.91;;;8.43;100.00
9717;BME280;4897;43.570;27.832;2022-10-22T04:35:47;99787.03;;;8.50;100.00
9717;BME280;4897;43.570;27.832;2022-10-22T04:38:14;99768.28;;;8.51;100.00
9717;BME280;4897;43.570;27.832;2022-10-22T04:40:41;99773.75;;;8.62;100.00
9717;BME280;4897;43.570;27.832;2022-10-22T04:43:08;99770.25;;;8.74;100.00
9717;BME280;4897;43.570;27.832;2022-10-22T04:45:37;99768.88;;;8.81;100.00
9717;BME280;4897;43.570;27.832;2022-10-22T04:48:04;99762.38;;;8.85;100.00
9717;BME280;4897;43.570;27.832;2022-10-22T04:50:31;99762.94;;;8.91;100.00
9717;BME280;4897;43.570;27.832;2022-10-22T04:52:58;99773.94;;;8.99;100.00
9717;BME280;4897;43.570;27.832;2022-10-22T04:55:25;99745.84;;;9.06;100.00
9717;BME280;4897;43.570;27.832;2022-10-22T04:57:52;99758.69;;;9.26;100.00
9717;BME280;4897;43.570;27.832;2022-10-22T05:00:19;99759.94;;;9.45;100.00
9717;BME280;4897;43.570;27.832;2022-10-22T05:02:49;99762.91;;;9.53;100.00
9717;BME280;4897;43.570;27.832;2022-10-22T05:05:16;99768.91;;;9.57;100.00
9717;BME280;4897;43.570;27.832;2022-10-22T05:07:43;99768.47;;;9.63;100.00
9717;BME280;4897;43.570;27.832;2022-10-22T05:10:10;99771.44;;;9.71;100.00
9717;BME280;4897;43.570;27.832;2022-10-22T05:12:37;99773.47;;;9.80;100.00
9717;BME280;4897;43.570;27.832;2022-10-22T05:15:04;99779.19;;;9.87;100.00
9717;BME280;4897;43.570;27.832;2022-10-22T05:17:34;99774.38;;;9.92;100.00
9717;BME280;4897;43.570;27.832;2022-10-22T05:20:03;99774.56;;;10.01;100.00
9717;BME280;4897;43.570;27.832;2022-10-22T05:22:30;99764.53;;;10.05;100.00
9717;BME280;4897;43.570;27.832;2022-10-22T05:24:58;99767.63;;;10.11;100.00
9717;BME280;4897;43.570;27.832;2022-10-22T05:27:25;99762.78;;;10.16;100.00
9717;BME280;4897;43.570;27.832;2022-10-22T05:29:52;99754.28;;;10.11;100.00
9717;BME280;4897;43.570;27.832;2022-10-22T05:32:19;99744.97;;;10.04;100.00
9717;BME280;4897;43.570;27.832;2022-10-22T05:34:46;99755.00;;;10.13;100.00
9717;BME280;4897;43.570;27.832;2022-10-22T05:37:14;99744.41;;;10.12;100.00
9717;BME280;4897;43.570;27.832;2022-10-22T05:39:41;99758.59;;;10.25;100.00
9717;BME280;4897;43.570;27.832;2022-10-22T05:42:10;99762.13;;;10.25;100.00
9717;BME280;4897;43.570;27.832;2022-10-22T05:44:37;99682.94;;;9.88;100.00
9717;BME280;4897;43.570;27.832;2022-10-22T05:47:05;99744.38;;;10.24;100.00
9717;BME280;4897;43.570;27.832;2022-10-22T05:49:32;99750.97;;;10.31;100.00
9717;BME280;4897;43.570;27.832;2022-10-22T05:52:01;99738.88;;;10.38;100.00
9717;BME280;4897;43.570;27.832;2022-10-22T05:54:30;99762.00;;;10.51;100.00
9717;BME280;4897;43.570;27.832;2022-10-22T05:56:57;99748.38;;;10.54;100.00
9717;BME280;4897;43.570;27.832;2022-10-22T05:59:24;99761.34;;;10.71;100.00
9717;BME280;4897;43.570;27.832;2022-10-22T06:01:50;99762.31;;;10.70;100.00
9717;BME280;4897;43.570;27.832;2022-10-22T06:04:17;99778.69;;;10.89;100.00
9717;BME280;4897;43.570;27.832;2022-10-22T06:06:46;99779.91;;;10.96;100.00
9717;BME280;4897;43.570;27.832;2022-10-22T06:09:16;99776.44;;;11.17;100.00
9717;BME280;4897;43.570;27.832;2022-10-22T06:11:46;99771.00;;;11.30;100.00
9717;BME280;4897;43.570;27.832;2022-10-22T06:14:14;99788.28;;;11.48;100.00
9717;BME280;4897;43.570;27.832;2022-10-22T06:16:40;99776.59;;;11.60;100.00
9717;BME280;4897;43.570;27.832;2022-10-22T06:19:09;99773.09;;;11.71;100.00
9717;BME280;4897;43.570;27.832;2022-10-22T06:21:36;99746.19;;;11.72;100.00
9717;BME280;4897;43.570;27.832;2022-10-22T06:24:09;99759.34;;;11.86;100.00
9717;BME280;4897;43.570;27.832;2022-10-22T06:26:36;99760.75;;;12.01;100.00
9717;BME280;4897;43.570;27.832;2022-10-22T06:29:05;99744.06;;;12.09;100.00
9717;BME280;4897;43.570;27.832;2022-10-22T06:31:33;99750.72;;;12.26;100.00
9717;BME280;4897;43.570;27.832;2022-10-22T06:34:02;99743.63;;;12.36;100.00
9717;BME280;4897;43.570;27.832;2022-10-22T06:36:30;99761.59;;;12.56;100.00
9717;BME280;4897;43.570;27.832;2022-10-22T06:38:57;99753.16;;;12.60;100.00
9717;BME280;4897;43.570;27.832;2022-10-22T06:41:24;99754.88;;;12.61;100.00
9717;BME280;4897;43.570;27.832;2022-10-22T06:43:52;99736.22;;;12.60;100.00
9717;BME280;4897;43.570;27.832;2022-10-22T06:46:22;99735.78;;;12.75;100.00
9717;BME280;4897;43.570;27.832;2022-10-22T06:48:50;99730.94;;;12.90;100.00
9717;BME280;4897;43.570;27.832;2022-10-22T06:51:20;99730.03;;;13.01;100.00
9717;BME280;4897;43.570;27.832;2022-10-22T06:53:48;99733.97;;;13.17;100.00
9717;BME280;4897;43.570;27.832;2022-10-22T06:56:17;99733.19;;;13.26;100.00
9717;BME280;4897;43.570;27.832;2022-10-22T06:58:46;99732.69;;;13.42;100.00
9717;BME280;4897;43.570;27.832;2022-10-22T07:01:14;99713.56;;;13.35;100.00
9717;BME280;4897;43.570;27.832;2022-10-22T07:03:42;99728.66;;;13.57;100.00
9717;BME280;4897;43.570;27.832;2022-10-22T07:06:12;99653.34;;;12.87;100.00
9717;BME280;4897;43.570;27.832;2022-10-22T07:08:40;99722.66;;;13.44;100.00
9717;BME280;4897;43.570;27.832;2022-10-22T07:11:08;99747.31;;;13.49;100.00
9717;BME280;4897;43.570;27.832;2022-10-22T07:13:38;99736.28;;;13.52;100.00
9717;BME280;4897;43.570;27.832;2022-10-22T07:16:06;99741.59;;;13.73;100.00
9717;BME280;4897;43.570;27.832;2022-10-22T07:18:34;99724.94;;;13.79;100.00
9717;BME280;4897;43.570;27.832;2022-10-22T07:21:06;99735.44;;;13.91;100.00
9717;BME280;4897;43.570;27.832;2022-10-22T07:23:33;99723.28;;;13.97;100.00
9717;BME280;4897;43.570;27.832;2022-10-22T07:26:00;99628.22;;;13.48;100.00
9717;BME280;4897;43.570;27.832;2022-10-22T07:28:28;99732.66;;;14.12;100.00
9717;BME280;4897;43.570;27.832;2022-10-22T07:30:55;99731.16;;;14.38;100.00
9717;BME280;4897;43.570;27.832;2022-10-22T07:33:22;99736.56;;;14.57;100.00
9717;BME280;4897;43.570;27.832;2022-10-22T07:35:49;99723.25;;;14.56;100.00
9717;BME280;4897;43.570;27.832;2022-10-22T07:38:17;99723.56;;;14.62;100.00
9717;BME280;4897;43.570;27.832;2022-10-22T07:40:44;99724.53;;;14.61;100.00
9717;BME280;4897;43.570;27.832;2022-10-22T07:43:12;99718.56;;;14.48;100.00
9717;BME280;4897;43.570;27.832;2022-10-22T07:45:39;99705.47;;;14.15;100.00
9717;BME280;4897;43.570;27.832;2022-10-22T07:48:06;99732.25;;;14.26;100.00
9717;BME280;4897;43.570;27.832;2022-10-22T07:50:33;99733.88;;;14.38;100.00
9717;BME280;4897;43.570;27.832;2022-10-22T07:53:00;99715.13;;;14.27;100.00
9717;BME280;4897;43.570;27.832;2022-10-22T07:55:28;99730.91;;;14.51;100.00
9717;BME280;4897;43.570;27.832;2022-10-22T07:57:55;99730.19;;;14.58;100.00
9717;BME280;4897;43.570;27.832;2022-10-22T08:00:22;99723.38;;;14.54;100.00
9717;BME280;4897;43.570;27.832;2022-10-22T08:02:49;99685.88;;;14.62;100.00
9717;BME280;4897;43.570;27.832;2022-10-22T08:05:17;99696.88;;;14.88;100.00
9717;BME280;4897;43.570;27.832;2022-10-22T08:07:44;99709.84;;;15.31;100.00
9717;BME280;4897;43.570;27.832;2022-10-22T08:10:11;99713.03;;;15.53;95.42
9717;BME280;4897;43.570;27.832;2022-10-22T08:12:40;99682.00;;;15.49;92.42
9717;BME280;4897;43.570;27.832;2022-10-22T08:15:08;99688.44;;;16.11;85.91
9717;BME280;4897;43.570;27.832;2022-10-22T08:17:35;99701.53;;;16.50;81.71
9717;BME280;4897;43.570;27.832;2022-10-22T08:20:02;99692.59;;;16.67;75.95
9717;BME280;4897;43.570;27.832;2022-10-22T08:22:29;99695.53;;;16.56;76.31
9717;BME280;4897;43.570;27.832;2022-10-22T08:24:56;99693.56;;;16.84;75.20
9717;BME280;4897;43.570;27.832;2022-10-22T08:27:25;99691.91;;;17.09;73.17
9717;BME280;4897;43.570;27.832;2022-10-22T08:29:53;99672.00;;;17.35;68.66
9717;BME280;4897;43.570;27.832;2022-10-22T08:32:20;99695.41;;;17.27;69.64
9717;BME280;4897;43.570;27.832;2022-10-22T08:34:47;99677.91;;;17.39;68.10
9717;BME280;4897;43.570;27.832;2022-10-22T08:37:14;99608.28;;;16.82;68.93
9717;BME280;4897;43.570;27.832;2022-10-22T08:39:42;99692.84;;;17.77;67.21
9717;BME280;4897;43.570;27.832;2022-10-22T08:42:26;99688.56;;;17.66;66.91
9717;BME280;4897;43.570;27.832;2022-10-22T08:45:07;99701.38;;;17.56;66.49
9717;BME280;4897;43.570;27.832;2022-10-22T08:47:53;99672.75;;;17.02;70.24
9717;BME280;4897;43.570;27.832;2022-10-22T08:50:32;99683.44;;;17.04;71.05
9717;BME280;4897;43.570;27.832;2022-10-22T08:53:02;99604.47;;;17.18;66.81
9717;BME280;4897;43.570;27.832;2022-10-22T08:55:30;99690.63;;;18.22;63.64
9717;BME280;4897;43.570;27.832;2022-10-22T08:58:03;99686.50;;;18.92;59.91
9717;BME280;4897;43.570;27.832;2022-10-22T09:00:37;99681.06;;;18.76;57.20
9717;BME280;4897;43.570;27.832;2022-10-22T09:03:22;99677.84;;;18.56;58.68
9717;BME280;4897;43.570;27.832;2022-10-22T09:06:00;99679.25;;;18.10;60.29
9717;BME280;4897;43.570;27.832;2022-10-22T09:08:28;99677.72;;;18.00;59.95
9717;BME280;4897;43.570;27.832;2022-10-22T09:11:02;99673.19;;;17.67;61.95
9717;BME280;4897;43.570;27.832;2022-10-22T09:13:31;99671.94;;;17.53;63.57
9717;BME280;4897;43.570;27.832;2022-10-22T09:16:14;99671.06;;;17.86;62.46
9717;BME280;4897;43.570;27.832;2022-10-22T09:18:50;99667.72;;;18.00;61.77
9717;BME280;4897;43.570;27.832;2022-10-22T09:21:25;99649.41;;;17.86;60.95
9717;BME280;4897;43.570;27.832;2022-10-22T09:24:08;99660.44;;;17.93;59.27
9717;BME280;4897;43.570;27.832;2022-10-22T09:26:38;99661.53;;;17.74;59.41
9717;BME280;4897;43.570;27.832;2022-10-22T09:29:08;99625.19;;;17.35;59.31
9717;BME280;4897;43.570;27.832;2022-10-22T09:31:40;99652.00;;;17.54;59.76
9717;BME280;4897;43.570;27.832;2022-10-22T09:34:07;99661.56;;;17.82;58.88
9717;BME280;4897;43.570;27.832;2022-10-22T09:36:34;99681.91;;;17.94;57.92
9717;BME280;4897;43.570;27.832;2022-10-22T09:39:12;99676.69;;;18.09;57.69
9717;BME280;4897;43.570;27.832;2022-10-22T09:41:48;99664.72;;;18.27;56.70
9717;BME280;4897;43.570;27.832;2022-10-22T09:44:16;99659.34;;;18.35;55.98
9717;BME280;4897;43.570;27.832;2022-10-22T09:46:45;99667.84;;;18.49;54.98
9717;BME280;4897;43.570;27.832;2022-10-22T09:49:13;99661.53;;;18.32;54.45
9717;BME280;4897;43.570;27.832;2022-10-22T09:51:48;99662.00;;;18.19;54.99
9717;BME280;4897;43.570;27.832;2022-10-22T09:54:17;99659.69;;;18.32;54.46
9717;BME280;4897;43.570;27.832;2022-10-22T09:56:56;99640.72;;;18.32;54.02
9717;BME280;4897;43.570;27.832;2022-10-22T09:59:27;99640.72;;;18.32;53.38
9717;BME280;4897;43.570;27.832;2022-10-22T10:02:10;99637.91;;;18.50;52.55
9717;BME280;4897;43.570;27.832;2022-10-22T10:04:40;99654.66;;;18.54;52.32
9717;BME280;4897;43.570;27.832;2022-10-22T10:07:15;99624.78;;;18.29;52.34
9717;BME280;4897;43.570;27.832;2022-10-22T10:09:42;99608.22;;;18.16;53.08
9717;BME280;4897;43.570;27.832;2022-10-22T10:12:21;99581.47;;;17.97;53.15
9717;BME280;4897;43.570;27.832;2022-10-22T10:14:55;99612.78;;;18.32;53.06
9717;BME280;4897;43.570;27.832;2022-10-22T10:17:32;99608.78;;;18.52;51.70
9717;BME280;4897;43.570;27.832;2022-10-22T10:20:12;99591.31;;;18.87;50.26
9717;BME280;4897;43.570;27.832;2022-10-22T10:22:52;99602.38;;;19.24;49.50
9717;BME280;4897;43.570;27.832;2022-10-22T10:25:42;99580.47;;;19.50;48.81
9717;BME280;4897;43.570;27.832;2022-10-22T10:28:20;99549.59;;;19.51;47.76
9717;BME280;4897;43.570;27.832;2022-10-22T10:30:54;99576.78;;;20.27;46.89
9717;BME280;4897;43.570;27.832;2022-10-22T10:33:32;99558.31;;;21.26;44.18
9717;BME280;4897;43.570;27.832;2022-10-22T10:36:08;99554.94;;;21.24;43.01
9717;BME280;4897;43.570;27.832;2022-10-22T10:38:43;99545.53;;;20.83;43.60
9717;BME280;4897;43.570;27.832;2022-10-22T10:41:26;99554.75;;;20.96;43.58
9717;BME280;4897;43.570;27.832;2022-10-22T10:44:05;99546.44;;;20.60;43.52
9717;BME280;4897;43.570;27.832;2022-10-22T10:46:46;99552.66;;;20.69;43.31
9717;BME280;4897;43.570;27.832;2022-10-22T10:49:19;99542.34;;;20.79;43.35
9717;BME280;4897;43.570;27.832;2022-10-22T10:51:53;99541.69;;;20.25;44.40
9717;BME280;4897;43.570;27.832;2022-10-22T10:54:37;99462.97;;;19.49;45.76
9717;BME280;4897;43.570;27.832;2022-10-22T10:57:12;99504.59;;;19.87;45.99
9717;BME280;4897;43.570;27.832;2022-10-22T11:00:03;99471.88;;;20.03;45.30
9717;BME280;4897;43.570;27.832;2022-10-22T11:03:00;99501.47;;;20.21;44.67
9717;BME280;4897;43.570;27.832;2022-10-22T11:05:37;99526.19;;;20.26;44.98
9717;BME280;4897;43.570;27.832;2022-10-22T11:08:09;99521.63;;;20.26;45.08
9717;BME280;4897;43.570;27.832;2022-10-22T11:10:41;99509.47;;;20.37;44.84
9717;BME280;4897;43.570;27.832;2022-10-22T11:13:16;99509.19;;;20.84;44.13
9717;BME280;4897;43.570;27.832;2022-10-22T11:15:47;99515.00;;;21.10;43.68
9717;BME280;4897;43.570;27.832;2022-10-22T11:18:20;99490.41;;;20.89;43.63
9717;BME280;4897;43.570;27.832;2022-10-22T11:20:56;99503.56;;;20.85;43.82
9717;BME280;4897;43.570;27.832;2022-10-22T11:23:37;99489.47;;;21.40;42.91
9717;BME280;4897;43.570;27.832;2022-10-22T11:26:14;99474.09;;;21.68;42.52
9717;BME280;4897;43.570;27.832;2022-10-22T11:28:47;99470.25;;;22.26;41.33
9717;BME280;4897;43.570;27.832;2022-10-22T11:31:16;99473.34;;;22.16;41.16
9717;BME280;4897;43.570;27.832;2022-10-22T11:33:51;99472.13;;;21.98;41.37
9717;BME280;4897;43.570;27.832;2022-10-22T11:36:21;99436.78;;;22.32;40.69
9717;BME280;4897;43.570;27.832;2022-10-22T11:38:52;99476.63;;;23.96;38.38
9717;BME280;4897;43.570;27.832;2022-10-22T11:41:26;99455.22;;;24.58;36.71
9717;BME280;4897;43.570;27.832;2022-10-22T11:44:08;99408.13;;;23.91;36.48
9717;BME280;4897;43.570;27.832;2022-10-22T11:46:44;99460.69;;;24.32;36.60
9717;BME280;4897;43.570;27.832;2022-10-22T11:49:18;99462.41;;;24.53;36.40
9717;BME280;4897;43.570;27.832;2022-10-22T11:51:50;99477.41;;;23.64;37.34
9717;BME280;4897;43.570;27.832;2022-10-22T11:54:37;99462.72;;;23.65;37.47
9717;BME280;4897;43.570;27.832;2022-10-22T11:57:18;99464.75;;;23.02;37.96
9717;BME280;4897;43.570;27.832;2022-10-22T11:59:51;99468.31;;;23.44;37.64
9717;BME280;4897;43.570;27.832;2022-10-22T12:02:39;99466.63;;;23.02;38.19
9717;BME280;4897;43.570;27.832;2022-10-22T12:08:29;99460.25;;;22.05;39.87
9717;BME280;4897;43.570;27.832;2022-10-22T12:11:02;99468.88;;;22.09;40.42
9717;BME280;4897;43.570;27.832;2022-10-22T12:13:31;99450.91;;;22.70;39.27
9717;BME280;4897;43.570;27.832;2022-10-22T12:16:01;99433.81;;;22.89;39.02
9717;BME280;4897;43.570;27.832;2022-10-22T12:18:33;99449.50;;;23.21;38.63
9717;BME280;4897;43.570;27.832;2022-10-22T12:21:01;99453.38;;;22.92;38.38
9717;BME280;4897;43.570;27.832;2022-10-22T12:23:33;99444.94;;;22.32;38.91
9717;BME280;4897;43.570;27.832;2022-10-22T12:26:02;99455.75;;;22.47;39.11
9717;BME280;4897;43.570;27.832;2022-10-22T12:28:36;99456.22;;;22.84;38.45
9717;BME280;4897;43.570;27.832;2022-10-22T12:31:04;99458.53;;;22.81;38.32
9717;BME280;4897;43.570;27.832;2022-10-22T12:33:31;99457.72;;;22.04;39.34
9717;BME280;4897;43.570;27.832;2022-10-22T12:35:58;99455.56;;;22.20;39.32
9717;BME280;4897;43.570;27.832;2022-10-22T12:38:28;99449.53;;;22.04;39.50
9717;BME280;4897;43.570;27.832;2022-10-22T12:40:59;99429.81;;;21.60;39.98
9717;BME280;4897;43.570;27.832;2022-10-22T12:43:27;99440.88;;;21.37;40.89
9717;BME280;4897;43.570;27.832;2022-10-22T12:45:55;99439.72;;;21.10;41.34
9717;BME280;4897;43.570;27.832;2022-10-22T12:48:27;99416.09;;;20.82;41.65
9717;BME280;4897;43.570;27.832;2022-10-22T12:50:59;99442.16;;;20.76;42.36
9717;BME280;4897;43.570;27.832;2022-10-22T12:53:30;99408.78;;;20.38;42.65
9717;BME280;4897;43.570;27.832;2022-10-22T12:56:01;99436.25;;;20.58;42.84
9717;BME280;4897;43.570;27.832;2022-10-22T12:58:37;99434.75;;;20.55;42.91
9717;BME280;4897;43.570;27.832;2022-10-22T13:01:05;99420.97;;;20.71;42.61
9717;BME280;4897;43.570;27.832;2022-10-22T13:03:38;99439.72;;;20.81;42.45
9717;BME280;4897;43.570;27.832;2022-10-22T13:06:13;99434.75;;;20.85;42.91
9717;BME280;4897;43.570;27.832;2022-10-22T13:08:56;99433.06;;;20.98;42.69
9717;BME280;4897;43.570;27.832;2022-10-22T13:11:32;99434.06;;;20.97;42.37
9717;BME280;4897;43.570;27.832;2022-10-22T13:14:03;99445.28;;;21.02;42.30
9717;BME280;4897;43.570;27.832;2022-10-22T13:16:30;99435.09;;;21.25;42.42
9717;BME280;4897;43.570;27.832;2022-10-22T13:18:57;99417.28;;;21.23;42.14
9717;BME280;4897;43.570;27.832;2022-10-22T13:21:31;99405.97;;;20.90;43.05
9717;BME280;4897;43.570;27.832;2022-10-22T13:24:00;99438.78;;;20.74;43.16
9717;BME280;4897;43.570;27.832;2022-10-22T13:26:33;99414.63;;;20.50;43.21
9717;BME280;4897;43.570;27.832;2022-10-22T13:29:02;99394.22;;;20.02;44.09